Time;durP1;ratioP1;P1;durP2;ratioP2;P2;SDS_P1;SDS_P2;PMS_P1;PMS_P2;Temp;Humidity;BMP_temperature;BMP_pressure;BME280_temperature;BME280_humidity;BME280_pressure;Samples;Min_cycle;Max_cycle;Signal;HPM_P1;HPM_P2
2021/12/18 00:00:05;;;;;;;9.05;5.50;;;;;;;16.68;58.30;97403.63;10487706;28;20490;-71
2021/12/18 00:05:16;;;;;;;8.05;5.25;;;;;;;16.69;58.22;97413.09;10491128;28;20077;-71
2021/12/18 00:10:23;;;;;;;6.38;4.82;;;;;;;16.69;58.17;97420.91;10495314;28;20040;-71
2021/12/18 00:15:24;;;;;;;6.80;5.25;;;;;;;16.67;58.20;97412.44;10495019;28;20040;-71
2021/12/18 00:20:27;;;;;;;8.95;5.22;;;;;;;16.67;57.89;97412.44;10494773;28;20048;-72
2021/12/18 00:25:29;;;;;;;6.72;5.32;;;;;;;16.65;58.61;97416.97;10494764;28;20071;-74
2021/12/18 00:30:31;;;;;;;8.95;5.20;;;;;;;16.65;58.40;97416.97;10494402;28;20098;-73
2021/12/18 00:35:33;;;;;;;5.88;4.90;;;;;;;16.66;57.89;97436.88;10493727;28;20047;-72
2021/12/18 00:40:46;;;;;;;7.25;5.25;;;;;;;16.64;58.16;97444.06;10494748;28;20041;-73
2021/12/18 00:45:47;;;;;;;6.93;5.15;;;;;;;16.63;58.18;97445.03;10494156;28;20048;-72
2021/12/18 00:50:49;;;;;;;6.03;4.95;;;;;;;16.63;58.39;97452.84;10494370;28;20040;-72
2021/12/18 00:55:52;;;;;;;6.57;5.18;;;;;;;16.62;58.04;97456.44;10493363;28;20047;-73
2021/12/18 01:00:54;;;;;;;6.22;5.00;;;;;;;16.61;58.39;97454.00;10487674;28;20116;-72
2021/12/18 01:05:56;;;;;;;10.20;5.03;;;;;;;16.62;58.21;97455.59;10460214;28;20044;-72
2021/12/18 01:11:21;;;;;;;6.00;4.90;;;;;;;16.61;58.63;97459.22;10460349;28;20053;-72
2021/12/18 01:16:23;;;;;;;7.60;5.57;;;;;;;16.60;57.22;97471.41;10459566;28;20044;-72
2021/12/18 01:26:44;;;;;;;6.32;4.97;;;;;;;16.59;58.22;97489.81;10458993;28;20044;-72
2021/12/18 01:31:46;;;;;;;7.10;5.60;;;;;;;16.56;58.19;97490.97;10459096;28;20041;-71
2021/12/18 01:36:48;;;;;;;6.72;5.07;;;;;;;16.56;58.25;97490.13;10458457;28;20041;-71
2021/12/18 01:52:34;;;;;;;6.13;5.53;;;;;;;16.56;58.11;97495.34;10457809;28;20041;-72
2021/12/18 01:57:38;;;;;;;7.13;5.38;;;;;;;16.55;58.00;97472.88;10458197;28;20513;-72
2021/12/18 02:02:39;;;;;;;5.18;4.65;;;;;;;16.54;58.32;97453.81;10484047;28;20064;-72
2021/12/18 02:07:41;;;;;;;5.78;4.95;;;;;;;16.53;58.35;97439.16;10499026;28;20487;-72
2021/12/18 02:23:06;;;;;;;7.88;4.93;;;;;;;16.52;58.54;97440.13;10498447;28;20052;-71
2021/12/18 02:28:19;;;;;;;6.97;5.05;;;;;;;16.50;58.56;97442.09;10498031;28;20094;-72
2021/12/18 02:33:21;;;;;;;5.78;4.85;;;;;;;16.51;58.44;97441.09;10492013;28;20487;-72
2021/12/18 02:38:43;;;;;;;6.28;5.30;;;;;;;16.53;58.33;97444.38;10498491;28;20056;-72
2021/12/18 02:43:45;;;;;;;6.60;5.20;;;;;;;16.49;58.53;97438.63;10495613;28;20114;-72
2021/12/18 02:48:52;;;;;;;4.90;4.32;;;;;;;16.49;58.46;97430.81;10497590;28;20048;-72
2021/12/18 02:53:54;;;;;;;5.40;4.82;;;;;;;16.52;58.22;97415.84;10496340;28;20372;-72
2021/12/18 02:59:05;;;;;;;5.75;5.05;;;;;;;16.52;58.22;97428.88;10496974;28;20410;-72
2021/12/18 03:04:17;;;;;;;4.75;4.32;;;;;;;16.50;58.23;97416.00;10496087;28;20052;-72
2021/12/18 03:25:16;;;;;;;6.10;4.90;;;;;;;16.49;58.05;97396.94;10491610;28;20445;-72
2021/12/18 03:30:18;;;;;;;5.55;4.90;;;;;;;16.48;57.94;97405.75;10495602;28;20048;-72
2021/12/18 03:35:20;;;;;;;5.70;4.82;;;;;;;16.49;57.97;97394.31;10495482;28;20052;-72
2021/12/18 03:40:24;;;;;;;5.22;4.70;;;;;;;16.49;58.18;97401.34;10494935;28;20044;-72
2021/12/18 03:45:25;;;;;;;11.27;4.90;;;;;;;16.46;58.43;97394.69;10495662;28;20041;-72
2021/12/18 03:50:27;;;;;;;5.38;4.88;;;;;;;16.45;58.46;97400.84;10494654;28;20052;-72
2021/12/18 03:55:29;;;;;;;7.30;4.80;;;;;;;16.47;58.31;97409.31;10495268;28;20098;-72
2021/12/18 04:00:30;;;;;;;6.32;4.68;;;;;;;16.47;58.23;97403.31;10494564;28;20052;-72
2021/12/18 04:05:33;;;;;;;5.88;4.75;;;;;;;16.48;57.88;97395.31;10495274;28;20044;-72
2021/12/18 04:10:37;;;;;;;5.97;4.90;;;;;;;16.48;58.23;97395.31;10494377;28;20052;-71
2021/12/18 04:15:39;;;;;;;5.30;4.80;;;;;;;16.46;58.01;97389.47;10488202;28;20083;-71
2021/12/18 04:20:41;;;;;;;6.38;4.63;;;;;;;16.48;58.23;97404.91;10493991;28;20041;-71
2021/12/18 04:25:43;;;;;;;5.97;4.50;;;;;;;16.47;58.17;97406.72;10494654;28;20056;-72
2021/12/18 04:30:44;;;;;;;5.45;4.43;;;;;;;16.47;58.09;97404.09;10494069;28;20052;-72
2021/12/18 04:35:46;;;;;;;4.60;4.20;;;;;;;16.46;58.01;97414.69;10499053;28;20117;-72
2021/12/18 04:40:49;;;;;;;5.20;4.53;;;;;;;16.45;58.24;97411.28;10502260;28;20040;-72
2021/12/18 04:45:51;;;;;;;5.25;4.20;;;;;;;16.45;58.17;97418.28;10502877;28;20474;-71
2021/12/18 04:50:53;;;;;;;7.63;4.60;;;;;;;16.45;57.92;97416.50;10502073;28;20036;-72
2021/12/18 04:55:55;;;;;;;5.72;4.55;;;;;;;16.44;58.33;97422.69;10502075;28;20040;-71
2021/12/18 05:00:56;;;;;;;9.48;4.90;;;;;;;16.44;58.21;97421.88;10501165;28;20136;-72
2021/12/18 05:06:03;;;;;;;6.57;4.30;;;;;;;16.46;58.39;97425.97;10501722;28;20402;-72
2021/12/18 05:11:04;;;;;;;6.20;3.97;;;;;;;16.44;58.22;97421.88;10501183;28;20102;-72
2021/12/18 05:16:06;;;;;;;5.20;4.18;;;;;;;16.42;58.00;97432.44;10501204;28;20068;-71
2021/12/18 05:21:08;;;;;;;6.20;4.65;;;;;;;16.44;58.38;97435.69;10494136;28;20052;-72
2021/12/18 05:26:09;;;;;;;6.68;4.38;;;;;;;16.43;58.30;97431.50;10500641;28;20052;-71
2021/12/18 05:31:16;;;;;;;6.00;4.68;;;;;;;16.40;58.28;97429.19;10500393;28;20114;-71
2021/12/18 05:36:32;;;;;;;6.72;4.40;;;;;;;16.40;58.46;97424.00;10500658;28;20090;-72
2021/12/18 05:41:34;;;;;;;4.63;4.00;;;;;;;16.41;58.33;97423.00;10499691;28;20044;-71
2021/12/18 05:46:36;;;;;;;5.82;4.13;;;;;;;16.42;58.11;97421.22;10500032;28;20479;-72
2021/12/18 05:51:38;;;;;;;4.97;4.47;;;;;;;16.42;58.11;97424.63;10500157;28;20139;-72
2021/12/18 05:56:41;;;;;;;6.72;4.10;;;;;;;16.40;58.14;97424.00;10499351;28;20118;-72
2021/12/18 06:01:42;;;;;;;5.43;4.20;;;;;;;16.41;58.15;97422.19;10498907;28;20445;-72
2021/12/18 06:06:44;;;;;;;5.03;4.22;;;;;;;16.39;58.01;97435.38;10498774;28;20102;-72
2021/12/18 06:11:45;;;;;;;5.28;4.28;;;;;;;16.42;57.98;97434.25;10498552;28;20497;-72
2021/12/18 06:16:47;;;;;;;4.68;3.60;;;;;;;16.41;57.75;97450.84;10498323;28;20053;-71
2021/12/18 06:21:49;;;;;;;5.82;4.13;;;;;;;16.39;58.14;97450.22;10498689;28;20049;-72
2021/12/18 06:26:50;;;;;;;4.15;3.72;;;;;;;16.40;57.94;97451.81;10498588;28;20047;-72
2021/12/18 06:31:52;;;;;;;7.35;3.80;;;;;;;16.39;57.60;97443.19;10498311;28;20475;-71
2021/12/18 06:36:53;;;;;;;4.75;3.75;;;;;;;16.40;57.90;97438.78;10498242;28;20345;-72
2021/12/18 06:41:55;;;;;;;6.30;3.75;;;;;;;16.39;57.66;97440.59;10496369;28;20551;-72
2021/12/18 06:46:57;;;;;;;5.85;4.03;;;;;;;16.39;58.03;97431.97;10497497;28;20071;-72
2021/12/18 06:51:58;;;;;;;4.40;3.80;;;;;;;16.39;58.10;97437.19;10491241;28;20445;-72
2021/12/18 06:57:02;;;;;;;5.60;3.70;;;;;;;16.37;57.95;97426.91;10496530;28;20048;-72
2021/12/18 07:02:03;;;;;;;4.43;3.70;;;;;;;16.36;57.83;97427.88;10496233;28;20110;-72
2021/12/18 07:07:05;;;;;;;4.47;3.63;;;;;;;16.57;58.24;97430.03;10495747;28;20040;-72
2021/12/18 07:12:10;;;;;;;3.40;2.95;;;;;;;17.01;57.41;97423.72;10496688;28;20401;-73
2021/12/18 07:17:11;;;;;;;5.82;3.47;;;;;;;17.34;56.51;97429.72;10492032;28;20137;-72
2021/12/18 07:22:13;;;;;;;6.00;3.40;;;;;;;17.59;55.54;97424.41;10495834;28;20531;-72
2021/12/18 07:27:15;;;;;;;3.70;3.33;;;;;;;17.80;55.11;97421.25;10496183;28;20098;-74
2021/12/18 07:32:17;;;;;;;8.43;4.65;;;;;;;17.98;56.79;97422.84;10496110;28;20040;-78
2021/12/18 07:37:26;;;;;;;9.75;4.32;;;;;;;18.25;56.74;97424.19;10495941;28;20094;-81
2021/12/18 07:42:28;;;;;;;11.55;4.43;;;;;;;18.25;56.74;97424.19;10495676;28;20060;-72
2021/12/18 07:47:30;;;;;;;25.15;4.80;;;;;;;18.25;56.74;97424.19;10494155;28;20094;-76
2021/12/18 07:52:31;;;;;;;25.95;5.65;;;;;;;18.25;56.74;97424.19;10495361;28;20120;-75
2021/12/18 07:57:33;;;;;;;14.38;4.95;;;;;;;18.25;56.74;97424.19;10495727;28;20041;-75
2021/12/18 08:02:35;;;;;;;16.05;4.85;;;;;;;18.25;56.74;97424.19;10494839;28;20056;-74
2021/12/18 08:07:37;;;;;;;17.27;5.13;;;;;;;18.25;56.74;97424.19;10495064;28;20124;-74
2021/12/18 08:12:38;;;;;;;15.63;4.50;;;;;;;18.25;56.74;97424.19;10494627;28;20066;-74
2021/12/18 08:17:40;;;;;;;13.30;4.30;;;;;;;18.25;56.74;97424.19;10494918;28;20048;-75
2021/12/18 08:22:42;;;;;;;13.25;4.28;;;;;;;18.25;56.74;97424.19;10494774;28;20053;-75
2021/12/18 08:27:43;;;;;;;11.32;4.82;;;;;;;18.25;56.74;97424.19;10493757;28;20048;-75
2021/12/18 08:32:45;;;;;;;8.60;4.10;;;;;;;18.25;56.74;97424.19;10488865;28;20041;-74
2021/12/18 08:37:47;;;;;;;8.75;4.50;;;;;;;18.25;56.74;97424.19;10495578;28;20167;-75
2021/12/18 08:42:48;;;;;;;10.00;4.40;;;;;;;18.25;56.74;97424.19;10494539;28;20048;-76
2021/12/18 08:47:50;;;;;;;8.38;4.43;;;;;;;18.25;56.74;97424.19;10493756;28;20043;-75
2021/12/18 08:52:52;;;;;;;11.30;4.25;;;;;;;18.25;56.74;97424.19;10494819;28;20071;-75
2021/12/18 08:57:54;;;;;;;9.13;4.00;;;;;;;18.54;51.59;97428.72;10494679;28;20398;-74
2021/12/18 09:02:57;;;;;;;7.32;4.25;;;;;;;18.54;51.59;97428.72;10494180;28;20056;-74
2021/12/18 09:07:59;;;;;;;8.38;4.00;;;;;;;18.54;51.59;97428.72;10494672;28;20441;-74
2021/12/18 09:13:06;;;;;;;7.10;3.78;;;;;;;18.54;51.59;97428.72;10493259;28;20032;-75
2021/12/18 09:18:10;;;;;;;5.60;3.58;;;;;;;18.54;51.59;97428.72;10494282;28;20504;-74
2021/12/18 09:23:17;;;;;;;4.15;3.42;;;;;;;18.54;51.59;97428.72;10501365;28;20399;-74
2021/12/18 09:28:18;;;;;;;10.13;3.60;;;;;;;18.25;51.93;97427.59;10501350;28;20033;-75
2021/12/18 09:33:20;;;;;;;7.00;3.45;;;;;;;18.21;52.15;97421.09;10494941;28;20124;-74
2021/12/18 09:38:22;;;;;;;7.38;3.90;;;;;;;18.19;52.09;97424.88;10501261;28;20449;-74
2021/12/18 09:43:26;;;;;;;7.40;3.67;;;;;;;18.14;51.99;97417.53;10500797;28;20036;-73
2021/12/18 09:48:28;;;;;;;5.55;3.30;;;;;;;18.10;52.22;97411.84;10499362;28;20037;-73
2021/12/18 09:53:30;;;;;;;5.45;3.45;;;;;;;18.08;51.94;97410.38;10500668;28;20068;-74
2021/12/18 09:58:32;;;;;;;5.35;3.65;;;;;;;18.03;51.87;97407.47;10500231;28;20047;-74
2021/12/18 10:03:52;;;;;;;7.60;3.60;;;;;;;18.03;51.87;97407.47;10499804;28;20494;-75
2021/12/18 10:08:55;;;;;;;4.85;3.00;;;;;;;17.97;52.06;97395.91;10498942;28;20473;-75
2021/12/18 10:14:02;;;;;;;5.55;3.70;;;;;;;17.97;52.06;97395.91;10499671;28;20121;-74
2021/12/18 10:19:03;;;;;;;6.28;3.70;;;;;;;17.87;52.32;97385.63;10499060;28;20135;-75
2021/12/18 10:24:16;;;;;;;7.93;3.30;;;;;;;17.85;52.10;97381.56;10498235;28;20044;-75
2021/12/18 10:29:36;;;;;;;5.63;3.28;;;;;;;17.85;52.10;97381.56;10480476;28;20135;-73
2021/12/18 10:34:40;;;;;;;6.18;3.47;;;;;;;17.85;52.10;97381.56;10497379;28;20098;-74
2021/12/18 10:39:50;;;;;;;7.55;3.30;;;;;;;17.72;52.45;97380.31;10497715;28;20090;-73
2021/12/18 10:44:55;;;;;;;6.85;3.47;;;;;;;17.71;52.55;97378.69;10497558;28;20040;-74
2021/12/18 10:49:57;;;;;;;10.30;3.58;;;;;;;17.69;52.61;97377.22;10498265;28;20043;-74
2021/12/18 10:55:04;;;;;;;5.78;3.60;;;;;;;17.67;52.38;97382.59;10498157;28;20098;-74
2021/12/18 11:00:06;;;;;;;9.35;3.78;;;;;;;17.61;52.81;97379.88;10493332;28;20049;-73
2021/12/18 11:05:16;;;;;;;7.63;3.47;;;;;;;17.61;52.61;97364.19;10497671;28;20482;-74
2021/12/18 11:10:54;;;;;;;3.97;3.38;;;;;;;17.55;52.79;97343.00;10495302;28;20082;-73
2021/12/18 11:15:56;;;;;;;7.03;3.63;;;;;;;17.55;52.79;97343.00;10495081;28;20036;-74
2021/12/18 11:20:58;;;;;;;5.82;3.47;;;;;;;17.52;53.43;97332.91;10496426;28;20043;-72
2021/12/18 11:26:00;;;;;;;4.63;3.50;;;;;;;17.51;53.25;97326.03;10494598;28;20483;-72
2021/12/18 11:31:03;;;;;;;7.70;4.00;;;;;;;17.48;53.28;97317.75;10493812;28;20619;-72
2021/12/18 11:36:05;;;;;;;7.63;3.90;;;;;;;17.48;52.91;97312.53;10475876;28;20414;-72
2021/12/18 11:41:14;;;;;;;6.00;4.00;;;;;;;17.48;52.91;97312.53;10492922;28;20452;-72
2021/12/18 11:46:37;;;;;;;5.95;3.40;;;;;;;17.43;53.02;97302.59;10493740;28;20406;-72
2021/12/18 11:51:39;;;;;;;7.72;3.70;;;;;;;17.41;53.03;97301.94;10493188;28;20044;-72
2021/12/18 11:56:50;;;;;;;9.43;3.58;;;;;;;17.40;53.09;97297.72;10492098;28;20072;-72
2021/12/18 12:02:13;;;;;;;5.65;3.55;;;;;;;17.39;52.79;97285.66;10493167;28;20211;-78
2021/12/18 12:07:19;;;;;;;5.18;3.65;;;;;;;17.38;52.89;97277.00;10489350;28;20041;-72
2021/12/18 12:12:21;;;;;;;6.50;3.83;;;;;;;17.36;52.91;97276.34;10495369;28;20110;-72
2021/12/18 12:17:27;;;;;;;5.43;3.70;;;;;;;17.33;53.17;97276.69;10495526;28;20048;-72
2021/12/18 12:22:42;;;;;;;7.03;3.75;;;;;;;17.30;52.98;97279.66;10495668;28;20036;-72
2021/12/18 12:27:59;;;;;;;6.05;3.70;;;;;;;17.29;52.44;97270.22;10493592;28;20120;-72
2021/12/18 12:33:04;;;;;;;5.22;3.42;;;;;;;17.26;53.23;97274.94;10494804;28;20048;-72
2021/12/18 12:38:22;;;;;;;3.85;3.00;;;;;;;17.22;53.00;97280.47;10492790;28;20044;-72
2021/12/18 12:43:29;;;;;;;7.72;3.75;;;;;;;17.18;53.25;97274.00;10494777;28;20049;-72
2021/12/18 12:49:08;;;;;;;7.13;3.65;;;;;;;17.15;53.29;97265.69;10493691;28;20496;-72
2021/12/18 12:54:49;;;;;;;3.45;3.03;;;;;;;17.12;53.54;97258.22;10492815;28;20195;-72
2021/12/18 12:59:58;;;;;;;5.68;3.58;;;;;;;17.08;53.56;97262.94;10500928;28;20067;-72
2021/12/18 13:05:05;;;;;;;5.50;3.60;;;;;;;17.07;53.28;97257.88;10502148;28;20572;-72
2021/12/18 13:10:07;;;;;;;3.75;3.05;;;;;;;17.04;53.31;97256.44;10501050;28;20040;-72
2021/12/18 13:15:11;;;;;;;7.03;3.63;;;;;;;17.00;53.56;97242.09;10495625;28;20099;-72
2021/12/18 13:20:13;;;;;;;4.68;3.45;;;;;;;16.98;53.31;97241.47;10501621;28;20051;-72
2021/12/18 13:25:15;;;;;;;4.05;3.30;;;;;;;16.94;53.60;97242.75;10501586;28;20052;-72
2021/12/18 13:30:20;;;;;;;5.25;3.40;;;;;;;16.93;53.54;97238.53;10501415;28;20039;-72
2021/12/18 13:35:26;;;;;;;4.85;3.40;;;;;;;16.91;53.08;97235.28;10501347;28;20090;-72
2021/12/18 13:40:31;;;;;;;5.88;3.50;;;;;;;16.91;53.08;97235.28;10499186;28;20040;-72
2021/12/18 13:45:46;;;;;;;4.22;3.40;;;;;;;16.88;53.57;97239.03;10499030;28;20475;-72
2021/12/18 13:51:09;;;;;;;4.15;3.17;;;;;;;16.88;53.57;97239.03;10501042;28;20391;-72
2021/12/18 13:56:12;;;;;;;6.18;3.25;;;;;;;16.85;53.25;97236.75;10483896;28;20053;-72
2021/12/18 14:01:24;;;;;;;5.25;3.28;;;;;;;16.81;53.15;97222.41;10500632;28;20139;-72
2021/12/18 14:06:34;;;;;;;3.92;3.40;;;;;;;16.78;53.42;97218.34;10499562;28;20060;-72
2021/12/18 14:11:41;;;;;;;3.58;3.28;;;;;;;16.75;53.87;97208.25;10500333;28;20093;-72
2021/12/18 14:16:52;;;;;;;5.05;3.75;;;;;;;16.73;53.83;97204.19;10498178;28;20040;-72
2021/12/18 14:21:54;;;;;;;4.30;3.25;;;;;;;16.73;53.83;97204.19;10499554;28;20041;-72
2021/12/18 14:27:02;;;;;;;5.22;3.83;;;;;;;16.65;54.12;97195.38;10499343;28;20049;-72
2021/12/18 14:32:06;;;;;;;6.32;4.00;;;;;;;16.64;54.08;97195.56;10499568;28;20040;-72
2021/12/18 14:37:19;;;;;;;5.20;3.75;;;;;;;16.64;54.16;97195.56;10497796;28;20044;-72
2021/12/18 14:42:33;;;;;;;4.30;3.50;;;;;;;16.58;54.05;97202.25;10498516;28;20113;-72
2021/12/18 14:47:51;;;;;;;4.78;4.07;;;;;;;16.56;54.19;97201.63;10498664;28;20048;-72
2021/12/18 14:52:55;;;;;;;;;;;;;;;16.53;54.51;97198.50;10498714;28;20393;-72
2021/12/18 14:58:27;;;;;;;5.90;3.90;;;;;;;16.50;54.66;97194.47;10497816;28;19920;-72
2021/12/18 15:03:30;;;;;;;6.07;4.50;;;;;;;16.48;54.56;97199.84;10483212;28;20502;-72
2021/12/18 15:08:45;;;;;;;7.20;5.43;;;;;;;16.48;54.19;97186.81;10496637;28;20110;-72
2021/12/18 15:13:53;;;;;;;9.63;5.20;;;;;;;16.44;54.41;97174.28;10497472;28;20040;-72
2021/12/18 15:18:59;;;;;;;7.45;5.47;;;;;;;16.42;54.36;97169.22;10496675;28;20041;-71
2021/12/18 15:24:01;;;;;;;7.70;5.45;;;;;;;16.42;54.33;97173.63;10496881;28;20052;-71
2021/12/18 15:29:06;;;;;;;9.10;5.20;;;;;;;16.39;54.43;97172.16;10497320;28;20114;-71
2021/12/18 15:34:10;;;;;;;8.85;5.55;;;;;;;16.39;54.43;97172.16;10495131;28;20048;-71
2021/12/18 15:39:12;;;;;;;14.25;6.05;;;;;;;16.37;54.89;97181.13;10496351;28;20098;-73
2021/12/18 15:44:14;;;;;;;15.15;6.03;;;;;;;16.38;57.52;97183.56;10495823;28;20045;-72
2021/12/18 15:49:21;;;;;;;20.95;6.28;;;;;;;16.39;57.03;97172.16;10488473;28;20422;-72
2021/12/18 15:54:23;;;;;;;16.00;6.10;;;;;;;16.39;57.03;97172.16;10493671;28;20094;-72
2021/12/18 15:59:25;;;;;;;11.95;6.10;;;;;;;16.39;56.84;97174.78;10493294;28;20044;-72
2021/12/18 16:04:26;;;;;;;14.25;6.35;;;;;;;16.33;57.10;97167.63;10488799;28;20040;-72
2021/12/18 16:09:28;;;;;;;13.88;6.03;;;;;;;16.33;57.66;97167.63;10492998;28;20486;-72
2021/12/18 16:14:31;;;;;;;14.73;6.38;;;;;;;16.31;57.45;97180.00;10490092;28;20033;-72
2021/12/18 16:19:33;;;;;;;10.45;5.93;;;;;;;16.30;57.54;97183.59;10487845;28;20048;-74
2021/12/18 16:24:36;;;;;;;12.13;6.13;;;;;;;16.29;57.72;97176.75;10492992;28;20106;-73
2021/12/18 16:29:37;;;;;;;11.07;6.20;;;;;;;16.28;57.36;97178.53;10498478;28;20037;-73
2021/12/18 16:34:39;;;;;;;13.77;5.75;;;;;;;16.27;57.46;97183.91;10502737;28;20040;-73
2021/12/18 16:39:44;;;;;;;8.10;5.68;;;;;;;16.26;57.09;97171.88;10503607;28;20036;-72
2021/12/18 16:44:46;;;;;;;11.95;5.55;;;;;;;16.26;57.38;97171.88;10502867;28;20048;-73
2021/12/18 16:49:57;;;;;;;11.48;5.18;;;;;;;16.24;57.33;97176.41;10503268;28;20045;-73
2021/12/18 16:54:59;;;;;;;7.43;5.15;;;;;;;16.22;56.97;97176.59;10501524;28;20048;-73
2021/12/18 17:00:03;;;;;;;13.27;6.78;;;;;;;16.20;56.86;97165.53;10502192;28;20423;-73
2021/12/18 17:05:05;;;;;;;6.75;5.40;;;;;;;16.20;56.42;97165.53;10501109;28;20052;-73
2021/12/18 17:10:09;;;;;;;7.28;5.07;;;;;;;16.19;56.82;97160.47;10502283;28;20049;-73
2021/12/18 17:15:11;;;;;;;7.65;5.03;;;;;;;16.17;56.47;97165.84;10500774;28;20410;-73
2021/12/18 17:20:13;;;;;;;9.50;5.38;;;;;;;16.14;56.47;97159.16;10501697;28;20044;-73
2021/12/18 17:25:15;;;;;;;8.63;5.53;;;;;;;16.11;56.72;97164.75;10501931;28;20051;-74
2021/12/18 17:30:18;;;;;;;8.05;5.18;;;;;;;16.11;56.71;97158.69;10500303;28;20082;-73
2021/12/18 17:35:21;;;;;;;7.28;5.22;;;;;;;16.09;56.62;97158.84;10501360;28;20037;-74
2021/12/18 17:40:24;;;;;;;6.75;5.15;;;;;;;16.09;56.70;97148.44;10500618;28;20094;-74
2021/12/18 17:45:26;;;;;;;6.93;5.10;;;;;;;16.02;56.73;97147.47;10501059;28;20490;-73
2021/12/18 17:50:29;;;;;;;6.63;4.85;;;;;;;16.03;56.65;97148.28;10500857;28;20090;-73
2021/12/18 17:55:31;;;;;;;7.78;5.22;;;;;;;16.02;56.90;97146.66;10500449;28;20444;-73
2021/12/18 18:00:33;;;;;;;7.95;5.18;;;;;;;16.01;56.99;97142.44;10499922;28;20448;-74
2021/12/18 18:05:35;;;;;;;7.50;5.30;;;;;;;15.98;56.94;97143.56;10498408;28;20060;-73
2021/12/18 18:10:43;;;;;;;7.80;5.28;;;;;;;15.99;56.88;97141.78;10498892;28;20056;-73
2021/12/18 18:15:45;;;;;;;6.50;5.20;;;;;;;15.98;56.76;97140.97;10499298;28;20106;-73
2021/12/18 18:20:48;;;;;;;6.68;5.20;;;;;;;15.95;57.01;97136.09;10499757;28;20105;-73
2021/12/18 18:25:51;;;;;;;7.28;5.45;;;;;;;15.95;57.02;97138.69;10499253;28;20528;-73
2021/12/18 18:30:52;;;;;;;8.27;5.80;;;;;;;15.95;56.97;97131.72;10499066;28;20045;-73
2021/12/18 18:35:57;;;;;;;7.65;5.97;;;;;;;15.96;56.53;97122.09;10497374;28;20083;-73
2021/12/18 18:41:01;;;;;;;8.15;5.68;;;;;;;15.98;56.68;97127.16;10498676;28;20041;-73
2021/12/18 18:46:17;;;;;;;7.03;5.50;;;;;;;15.95;56.48;97120.47;10491824;28;20040;-73
2021/12/18 18:51:19;;;;;;;8.13;5.50;;;;;;;15.94;56.70;97122.25;10497591;28;20037;-73
2021/12/18 18:56:21;;;;;;;7.07;5.70;;;;;;;15.94;56.07;97126.66;10496859;28;20098;-74
2021/12/18 19:01:24;;;;;;;6.43;5.28;;;;;;;15.93;56.24;97120.63;10497809;28;20053;-73
2021/12/18 19:06:26;;;;;;;7.57;6.00;;;;;;;15.93;56.17;97128.44;10497762;28;20040;-74
2021/12/18 19:11:28;;;;;;;7.75;5.78;;;;;;;15.93;56.22;97132.84;10497964;28;20044;-73
2021/12/18 19:16:35;;;;;;;8.02;6.25;;;;;;;15.91;56.27;97129.59;10496990;28;20040;-74
2021/12/18 19:21:37;;;;;;;7.07;5.63;;;;;;;15.91;56.24;97117.38;10497477;28;20490;-74
2021/12/18 19:26:38;;;;;;;8.25;5.82;;;;;;;15.88;55.87;97117.72;10496421;28;20483;-73
2021/12/18 19:31:42;;;;;;;7.05;5.78;;;;;;;15.90;55.93;97126.16;10495522;28;20098;-73
2021/12/18 19:36:46;;;;;;;7.60;5.90;;;;;;;15.90;55.93;97126.16;10496468;28;20426;-73
2021/12/18 19:41:47;;;;;;;8.93;5.90;;;;;;;15.88;55.79;97109.91;10496269;28;20051;-73
2021/12/18 19:46:49;;;;;;;8.13;5.78;;;;;;;15.84;55.98;97110.38;10496054;28;20054;-73
2021/12/18 19:51:50;;;;;;;7.35;6.13;;;;;;;15.82;55.89;97110.56;10495076;28;20110;-73
2021/12/18 19:56:52;;;;;;;7.70;5.80;;;;;;;15.82;55.70;97115.75;10496203;28;20044;-73
2021/12/18 20:02:02;;;;;;;8.05;6.05;;;;;;;15.79;55.60;97116.09;10474303;28;20556;-73
2021/12/18 20:07:13;;;;;;;7.75;6.13;;;;;;;15.77;56.54;97111.03;10454102;28;20059;-72
2021/12/18 20:12:16;;;;;;;8.48;6.43;;;;;;;15.77;56.54;97111.03;10435963;28;20103;-74
2021/12/18 20:17:18;;;;;;;8.18;6.05;;;;;;;15.76;56.21;97099.03;10433133;28;20053;-70
2021/12/18 20:22:19;;;;;;;8.55;5.85;;;;;;;15.79;56.22;97097.84;10453768;28;20080;-71
2021/12/18 20:27:21;;;;;;;12.10;6.30;;;;;;;15.77;55.70;97094.63;10453835;28;20048;-71
2021/12/18 20:32:24;;;;;;;9.57;6.80;;;;;;;15.77;55.70;97094.63;10435931;28;20090;-71
2021/12/18 20:37:26;;;;;;;10.30;7.07;;;;;;;15.77;55.58;97087.59;10449947;28;20060;-70
2021/12/18 20:42:27;;;;;;;11.73;7.88;;;;;;;15.75;55.29;97086.94;10449753;28;20562;-71
2021/12/18 20:47:29;;;;;;;9.90;7.97;;;;;;;15.73;55.87;97086.28;10450504;28;20063;-71
2021/12/18 20:52:31;;;;;;;14.60;8.85;;;;;;;15.72;55.59;97082.06;10450505;28;20051;-71
2021/12/18 20:57:39;;;;;;;12.70;8.50;;;;;;;15.70;55.82;97085.78;10433839;28;20506;-70
2021/12/18 21:02:41;;;;;;;12.07;9.07;;;;;;;15.71;55.55;97090.03;10462823;28;20044;-70
2021/12/18 21:07:50;;;;;;;15.82;9.70;;;;;;;15.66;55.35;97077.50;10492100;28;20044;-70
2021/12/18 21:12:52;;;;;;;14.32;10.73;;;;;;;15.67;55.69;97073.09;10488908;28;20048;-70
2021/12/18 21:17:54;;;;;;;15.65;10.70;;;;;;;15.68;55.70;97072.13;10499268;28;20048;-70
2021/12/18 21:22:56;;;;;;;17.15;11.73;;;;;;;15.66;55.64;97080.09;10500124;28;20152;-71
2021/12/18 21:27:58;;;;;;;13.73;10.35;;;;;;;15.65;55.21;97082.88;10501007;28;20033;-70
2021/12/18 21:32:59;;;;;;;16.73;11.25;;;;;;;15.65;55.21;97082.88;10501196;28;20048;-70
2021/12/18 21:38:03;;;;;;;16.00;11.57;;;;;;;15.66;55.23;97079.31;10500524;28;20470;-71
2021/12/18 21:43:05;;;;;;;16.38;11.85;;;;;;;15.64;55.39;97081.25;10500309;28;20101;-71
2021/12/18 21:48:07;;;;;;;16.23;11.98;;;;;;;15.63;55.58;97083.03;10501058;28;20036;-71
2021/12/18 21:53:10;;;;;;;16.90;11.85;;;;;;;15.61;55.47;97082.41;10500553;28;20556;-70
2021/12/18 21:58:11;;;;;;;16.70;11.60;;;;;;;15.60;54.99;97079.00;10500120;28;20055;-70
2021/12/18 22:03:13;;;;;;;15.40;11.77;;;;;;;15.58;55.24;97065.31;10499958;28;20071;-71
2021/12/18 22:08:18;;;;;;;16.92;11.82;;;;;;;15.58;54.92;97062.69;10499861;28;20153;-71
2021/12/18 22:13:20;;;;;;;14.48;10.85;;;;;;;15.58;55.46;97049.69;10499460;28;20098;-71
2021/12/18 22:18:22;;;;;;;17.42;12.07;;;;;;;15.57;55.33;97058.50;10499453;28;20055;-71
2021/12/18 22:23:23;;;;;;;16.55;11.70;;;;;;;15.53;55.36;97059.78;10499038;28;20048;-71
2021/12/18 22:28:25;;;;;;;14.82;10.98;;;;;;;15.54;55.34;97055.38;10498786;28;20040;-71
2021/12/18 22:33:30;;;;;;;15.55;11.15;;;;;;;15.55;55.52;97062.22;10499265;28;20418;-70
2021/12/18 22:38:32;;;;;;;15.32;10.95;;;;;;;15.54;55.44;97048.41;10498393;28;20048;-72
2021/12/18 22:43:33;;;;;;;16.85;10.55;;;;;;;15.52;55.20;97045.13;10491569;28;20478;-71
2021/12/18 22:48:38;;;;;;;13.85;10.63;;;;;;;15.52;55.35;97044.34;10496147;28;20045;-71
2021/12/18 22:53:40;;;;;;;13.60;10.10;;;;;;;15.53;55.02;97030.34;10497457;28;20482;-71
2021/12/18 22:58:42;;;;;;;14.27;10.02;;;;;;;15.50;55.03;97031.50;10496815;28;20045;-70
2021/12/18 23:03:45;;;;;;;15.30;10.63;;;;;;;15.49;55.29;97027.25;10495366;28;20052;-70
2021/12/18 23:08:49;;;;;;;12.68;10.05;;;;;;;15.49;55.29;97027.25;10497109;28;20044;-70
2021/12/18 23:24:11;;;;;;;12.43;9.52;;;;;;;15.47;55.03;97037.00;10496343;28;20436;-70
2021/12/18 23:29:14;;;;;;;13.45;9.57;;;;;;;15.48;55.13;97022.22;10495616;28;20487;-70
2021/12/18 23:34:16;;;;;;;12.25;9.60;;;;;;;15.46;55.29;97029.38;10496080;28;20048;-70
2021/12/18 23:39:18;;;;;;;13.32;9.32;;;;;;;15.45;55.17;97010.34;10493418;28;20068;-71
2021/12/18 23:49:42;;;;;;;12.48;8.98;;;;;;;15.44;55.00;96997.50;10495367;28;20398;-70
2021/12/18 23:54:43;;;;;;;14.63;9.23;;;;;;;15.41;55.12;96996.88;10495169;28;20473;-70
2021/12/18 23:59:46;;;;;;;13.15;9.00;;;;;;;15.40;55.25;96984.81;10488841;28;20114;-70
